Time;durP1;ratioP1;P1;durP2;ratioP2;P2;SDS_P1;SDS_P2;PMS_P1;PMS_P2;Temp;Humidity;BMP_temperature;BMP_pressure;BME280_temperature;BME280_humidity;BME280_pressure;Samples;Min_cycle;Max_cycle;Signal;HPM_P1;HPM_P2
2022/04/19 00:00:05;;;;;;;1.50;1.40;;;;;;;8.90;53.55;100744.91;4966023;28;20959;-70
2022/04/19 00:02:31;;;;;;;3.72;1.27;;;;;;;8.92;53.62;100745.59;4960854;28;20907;-70
2022/04/19 00:04:59;;;;;;;1.90;1.65;;;;;;;8.79;53.84;100746.75;4953964;28;20033;-70
2022/04/19 00:07:25;;;;;;;6.18;1.80;;;;;;;8.58;53.80;100750.16;4954406;28;20018;-70
2022/04/19 00:09:50;;;;;;;1.85;1.70;;;;;;;8.50;53.29;100747.28;4951266;28;20015;-70
2022/04/19 00:12:15;;;;;;;4.35;1.73;;;;;;;8.50;53.59;100737.59;4948728;28;20033;-72
2022/04/19 00:14:41;;;;;;;1.85;1.60;;;;;;;8.67;53.13;100749.41;4933489;28;20031;-71
2022/04/19 00:17:07;;;;;;;5.18;1.63;;;;;;;8.67;53.16;100745.94;4953503;28;20035;-70
2022/04/19 00:19:32;;;;;;;4.88;1.83;;;;;;;8.47;54.13;100744.91;4953218;28;20021;-70
2022/04/19 00:21:57;;;;;;;6.22;1.77;;;;;;;8.33;54.88;100732.78;4969988;28;20029;-70
2022/04/19 00:24:23;;;;;;;2.28;1.67;;;;;;;8.24;55.38;100732.56;4954645;28;20938;-69
2022/04/19 00:26:48;;;;;;;5.15;2.00;;;;;;;8.00;55.82;100739.78;4942908;28;20084;-69
2022/04/19 00:29:14;;;;;;;1.77;1.67;;;;;;;7.97;55.39;100737.38;4934853;28;20007;-69
2022/04/19 00:31:39;;;;;;;2.35;1.70;;;;;;;7.95;55.48;100739.28;4946913;28;20014;-72
2022/04/19 00:34:04;;;;;;;2.47;1.60;;;;;;;7.97;56.17;100740.03;4952456;28;20045;-71
2022/04/19 00:36:30;;;;;;;3.70;2.17;;;;;;;7.79;57.60;100740.47;4952201;28;20413;-69
2022/04/19 00:38:55;;;;;;;1.50;1.50;;;;;;;7.80;57.20;100730.78;4936694;28;20023;-70
2022/04/19 00:41:21;;;;;;;1.75;1.65;;;;;;;7.71;57.51;100740.22;4954625;28;20919;-70
2022/04/19 00:43:46;;;;;;;1.77;1.50;;;;;;;7.78;57.12;100736.16;4976032;28;20570;-70
2022/04/19 00:46:11;;;;;;;4.38;1.75;;;;;;;7.60;57.98;100721.78;4965624;28;20022;-70
2022/04/19 00:48:37;;;;;;;1.70;1.60;;;;;;;7.51;58.46;100721.53;4952623;28;20045;-69
2022/04/19 00:51:03;;;;;;;2.83;1.38;;;;;;;7.42;59.51;100719.63;4967518;28;20011;-71
2022/04/19 00:53:28;;;;;;;1.70;1.60;;;;;;;7.44;60.19;100724.75;4940895;28;20269;-69
2022/04/19 00:55:54;;;;;;;2.72;2.00;;;;;;;7.28;60.47;100725.09;4946647;28;20717;-70
2022/04/19 00:58:19;;;;;;;4.43;1.92;;;;;;;7.27;60.98;100723.41;4967855;28;20045;-69
2022/04/19 01:00:45;;;;;;;4.80;1.90;;;;;;;7.22;60.46;100729.84;4949674;28;20050;-69
2022/04/19 01:03:10;;;;;;;2.65;1.70;;;;;;;7.19;60.69;100722.19;4969971;28;20014;-70
2022/04/19 01:05:36;;;;;;;1.95;1.85;;;;;;;7.15;59.84;100712.84;4964480;28;20026;-71
2022/04/19 01:08:01;;;;;;;1.90;1.80;;;;;;;7.12;59.99;100715.72;4935675;28;21075;-70
2022/04/19 01:10:26;;;;;;;1.77;1.67;;;;;;;7.08;59.88;100709.00;4935496;28;20023;-70
2022/04/19 01:15:36;;;;;;;1.77;1.67;;;;;;;6.98;59.71;100722.00;4940363;28;20102;-69
2022/04/19 01:18:02;;;;;;;2.00;1.77;;;;;;;6.84;59.82;100719.56;4953191;28;20054;-70
2022/04/19 01:20:28;;;;;;;1.73;1.63;;;;;;;6.84;59.21;100720.41;4951295;28;20015;-69
2022/04/19 01:22:53;;;;;;;2.22;1.85;;;;;;;6.96;58.19;100717.81;4932941;28;20018;-70
2022/04/19 01:25:20;;;;;;;1.92;1.80;;;;;;;6.82;58.14;100708.31;4967748;28;20832;-70
2022/04/19 01:27:46;;;;;;;5.47;2.00;;;;;;;6.81;58.72;100706.63;4966626;28;20450;-72
2022/04/19 01:30:11;;;;;;;1.80;1.70;;;;;;;6.72;59.36;100710.78;4953233;28;20015;-70
2022/04/19 01:32:37;;;;;;;2.15;1.80;;;;;;;6.66;59.49;100709.44;4969118;28;20042;-70
2022/04/19 01:35:12;;;;;;;2.35;1.70;;;;;;;6.68;59.97;100715.44;4954908;28;20027;-69
2022/04/19 01:37:38;;;;;;;3.72;1.92;;;;;;;6.65;60.19;100709.53;4951934;28;20046;-69
2022/04/19 01:40:17;;;;;;;2.00;1.90;;;;;;;6.58;60.28;100703.06;4956213;28;20042;-70
2022/04/19 01:42:49;;;;;;;1.85;1.75;;;;;;;6.49;61.07;100709.84;4945433;28;20027;-70
2022/04/19 01:45:18;;;;;;;1.90;1.80;;;;;;;6.40;61.10;100705.22;4936288;28;20418;-70
2022/04/19 01:47:44;;;;;;;1.80;1.70;;;;;;;6.38;61.95;100702.72;4938470;28;20022;-70
2022/04/19 01:50:10;;;;;;;2.00;1.90;;;;;;;6.33;61.52;100703.06;4953916;28;20018;-70
2022/04/19 01:52:37;;;;;;;2.00;1.90;;;;;;;6.25;62.45;100702.75;4935729;28;20022;-70
2022/04/19 01:55:07;;;;;;;2.80;1.80;;;;;;;6.30;61.75;100699.78;4948011;28;20025;-70
2022/04/19 01:57:32;;;;;;;1.70;1.60;;;;;;;6.22;62.34;100696.88;4956012;28;20015;-70
2022/04/19 01:59:57;;;;;;;1.70;1.60;;;;;;;6.17;61.27;100695.41;4953138;28;20033;-70
2022/04/19 02:02:23;;;;;;;1.80;1.70;;;;;;;6.25;60.80;100701.94;4943871;28;19998;-70
2022/04/19 02:04:50;;;;;;;1.95;1.83;;;;;;;6.21;60.88;100700.47;4952045;28;20053;-69
2022/04/19 02:07:16;;;;;;;2.00;1.70;;;;;;;6.12;62.23;100702.81;4953031;28;20047;-69
2022/04/19 02:09:41;;;;;;;1.88;1.77;;;;;;;6.17;61.96;100694.59;4935803;28;21518;-69
2022/04/19 02:12:07;;;;;;;1.90;1.80;;;;;;;6.11;62.22;100700.28;4941172;28;20018;-69
2022/04/19 02:14:32;;;;;;;1.75;1.65;;;;;;;6.00;62.49;100698.41;4955876;28;20037;-69
2022/04/19 02:16:58;;;;;;;1.80;1.70;;;;;;;6.03;62.87;100697.34;4938293;28;20025;-70
2022/04/19 02:19:23;;;;;;;1.80;1.70;;;;;;;5.97;63.29;100696.84;4955750;28;20025;-69
2022/04/19 02:21:48;;;;;;;2.25;1.92;;;;;;;5.95;64.16;100700.47;4973133;28;20962;-69
2022/04/19 02:24:14;;;;;;;2.03;1.80;;;;;;;6.01;63.56;100681.72;4965826;28;20092;-69
2022/04/19 02:26:39;;;;;;;1.60;1.50;;;;;;;5.99;63.28;100689.69;4965572;28;20026;-69
2022/04/19 02:29:05;;;;;;;1.90;1.80;;;;;;;5.98;64.01;100689.81;4969795;28;20026;-69
2022/04/19 02:31:30;;;;;;;2.03;1.92;;;;;;;6.04;64.70;100693.78;4947656;28;20127;-69
2022/04/19 02:33:58;;;;;;;2.10;2.00;;;;;;;6.02;64.73;100691.25;4974871;28;20018;-69
2022/04/19 02:36:24;;;;;;;3.28;1.80;;;;;;;5.91;64.48;100697.25;4959805;28;20504;-69
2022/04/19 02:38:50;;;;;;;5.88;1.80;;;;;;;5.82;63.87;100690.84;4953981;28;20007;-69
2022/04/19 02:41:15;;;;;;;3.20;1.88;;;;;;;5.81;64.49;100689.16;4966045;28;20018;-70
2022/04/19 02:43:40;;;;;;;1.80;1.70;;;;;;;5.80;64.65;100687.47;4954326;28;20018;-68
2022/04/19 02:46:06;;;;;;;2.05;1.85;;;;;;;5.68;65.20;100690.94;4938736;28;20847;-69
2022/04/19 02:48:31;;;;;;;2.10;1.90;;;;;;;5.67;64.51;100692.75;4955629;28;20499;-69
2022/04/19 02:50:56;;;;;;;2.15;2.05;;;;;;;5.62;64.80;100696.63;4951264;28;19999;-69
2022/04/19 02:53:22;;;;;;;2.10;2.00;;;;;;;5.59;65.37;100702.94;4934407;28;20086;-69
2022/04/19 02:55:48;;;;;;;2.10;2.00;;;;;;;5.61;64.73;100692.31;4945891;28;20015;-70
2022/04/19 02:58:13;;;;;;;1.92;1.83;;;;;;;5.58;64.60;100696.00;4951586;28;20015;-70
2022/04/19 03:00:39;;;;;;;2.08;1.98;;;;;;;5.48;65.04;100692.34;4965781;28;20023;-69
2022/04/19 03:03:04;;;;;;;1.90;1.80;;;;;;;5.45;65.16;100693.38;4962018;28;20051;-69
2022/04/19 03:05:30;;;;;;;2.30;1.90;;;;;;;5.48;65.00;100687.91;4956768;28;20448;-69
2022/04/19 03:07:56;;;;;;;2.10;2.00;;;;;;;5.44;65.70;100696.97;4974001;28;20007;-69
2022/04/19 03:10:21;;;;;;;1.90;1.90;;;;;;;5.43;65.74;100686.56;4956313;28;20021;-69
2022/04/19 03:12:47;;;;;;;2.30;2.10;;;;;;;5.38;65.86;100684.25;4958965;28;20879;-69
2022/04/19 03:15:12;;;;;;;1.70;1.67;;;;;;;5.40;65.77;100682.38;4951493;28;20362;-69
2022/04/19 03:17:41;;;;;;;2.08;1.98;;;;;;;5.41;65.44;100680.59;4938102;28;20877;-69
2022/04/19 03:20:09;;;;;;;2.00;1.90;;;;;;;5.34;65.15;100674.91;4953957;28;20026;-69
2022/04/19 03:28:04;;;;;;;;;;;;;;;5.38;65.71;100684.25;4949391;28;20107;-68
2022/04/19 03:30:30;;;;;;;1.85;1.70;;;;;;;5.37;66.08;100682.56;4964540;28;19913;-69
2022/04/19 03:32:55;;;;;;;1.80;1.70;;;;;;;5.27;66.91;100685.00;4946661;28;20019;-69
2022/04/19 03:35:20;;;;;;;1.70;1.70;;;;;;;5.25;67.21;100672.94;4950171;28;21074;-69
2022/04/19 03:37:46;;;;;;;2.90;1.92;;;;;;;5.19;67.83;100674.19;4934122;28;20022;-69
2022/04/19 03:40:11;;;;;;;2.63;2.03;;;;;;;5.17;67.98;100683.91;4952772;28;20451;-69
2022/04/19 03:42:40;;;;;;;2.78;2.22;;;;;;;5.19;68.40;100686.44;4952405;28;20027;-69
2022/04/19 03:45:07;;;;;;;2.25;1.73;;;;;;;5.21;68.50;100684.56;4951726;28;20031;-69
2022/04/19 03:47:34;;;;;;;2.30;1.98;;;;;;;5.23;68.80;100677.41;4949298;28;20038;-69
2022/04/19 03:50:00;;;;;;;3.30;3.10;;;;;;;5.16;68.41;100676.97;4949804;28;20027;-69
2022/04/19 03:52:25;;;;;;;2.78;2.53;;;;;;;5.14;68.96;100684.13;4949562;28;20361;-69
2022/04/19 03:54:51;;;;;;;2.20;2.10;;;;;;;5.13;69.17;100678.06;4954302;28;20523;-69
2022/04/19 03:57:17;;;;;;;2.40;2.30;;;;;;;5.21;69.67;100681.94;4945575;28;20092;-69
2022/04/19 03:59:43;;;;;;;2.80;2.58;;;;;;;5.19;69.86;100683.81;4969114;28;20003;-69
2022/04/19 04:02:08;;;;;;;2.28;2.17;;;;;;;5.14;69.36;100679.72;4953887;28;20038;-72
2022/04/19 04:04:35;;;;;;;2.17;2.08;;;;;;;5.11;69.32;100679.94;4955605;28;20037;-71
2022/04/19 04:07:04;;;;;;;1.80;1.70;;;;;;;5.08;69.66;100676.69;4934395;28;20318;-70
2022/04/19 04:09:32;;;;;;;2.20;2.10;;;;;;;5.10;69.57;100672.16;4934458;28;20126;-70
2022/04/19 04:12:16;;;;;;;1.92;1.83;;;;;;;5.05;70.03;100674.25;4934162;28;20421;-70
2022/04/19 04:14:43;;;;;;;2.40;2.30;;;;;;;5.02;70.02;100685.81;4938606;28;20517;-69
2022/04/19 04:17:08;;;;;;;2.10;1.98;;;;;;;5.05;69.86;100680.34;4923450;28;20993;-69
2022/04/19 04:19:33;;;;;;;2.20;2.10;;;;;;;5.09;69.56;100681.81;4956016;28;20042;-70
2022/04/19 04:21:59;;;;;;;2.78;2.08;;;;;;;4.98;69.77;100685.16;4958856;28;20026;-71
2022/04/19 04:24:25;;;;;;;3.63;2.22;;;;;;;4.99;69.88;100686.00;4969269;28;20018;-70
2022/04/19 04:26:50;;;;;;;2.20;2.00;;;;;;;5.10;69.26;100686.09;4958480;28;20210;-70
2022/04/19 04:29:15;;;;;;;2.83;2.30;;;;;;;5.09;69.61;100694.94;4954575;28;20293;-70
2022/04/19 04:31:41;;;;;;;2.20;2.10;;;;;;;5.21;68.75;100693.25;4927173;28;20018;-70
2022/04/19 04:34:06;;;;;;;2.55;2.45;;;;;;;5.22;68.87;100687.09;4968879;28;20034;-70
2022/04/19 04:36:32;;;;;;;3.90;2.22;;;;;;;5.30;68.73;100690.03;4973080;28;20021;-70
2022/04/19 04:38:57;;;;;;;3.17;2.00;;;;;;;5.30;68.26;100697.03;4956861;28;20336;-72
2022/04/19 04:41:23;;;;;;;3.72;2.30;;;;;;;5.25;68.38;100692.13;4948957;28;20034;-70
2022/04/19 04:43:48;;;;;;;2.53;2.30;;;;;;;5.07;69.54;100694.19;4933453;28;20025;-71
2022/04/19 04:51:41;;;;;;;2.25;2.05;;;;;;;5.38;67.49;100707.88;4950489;28;20010;-71
2022/04/19 04:54:06;;;;;;;2.25;2.15;;;;;;;5.22;67.86;100691.47;4944578;28;20022;-71
2022/04/19 04:56:32;;;;;;;2.67;2.42;;;;;;;5.05;68.72;100697.84;4967043;28;20029;-70
2022/04/19 04:58:58;;;;;;;2.65;2.33;;;;;;;5.06;69.13;100697.78;4965111;28;20511;-70
2022/04/19 05:01:23;;;;;;;3.17;2.03;;;;;;;5.04;68.68;100697.03;4964226;28;20899;-71
2022/04/19 05:03:48;;;;;;;3.63;2.03;;;;;;;5.04;69.31;100701.44;4955960;28;20231;-71
2022/04/19 05:06:14;;;;;;;2.08;1.95;;;;;;;5.21;68.66;100695.06;4954204;28;20029;-72
2022/04/19 05:08:39;;;;;;;1.92;1.83;;;;;;;5.16;68.64;100704.06;4956661;28;20022;-70
2022/04/19 05:11:04;;;;;;;2.25;2.15;;;;;;;5.07;69.06;100699.44;4956559;28;20034;-69
2022/04/19 05:13:30;;;;;;;3.97;1.95;;;;;;;5.07;69.36;100709.94;4965025;28;20957;-70
2022/04/19 05:15:58;;;;;;;2.25;2.05;;;;;;;5.04;68.82;100710.13;4964519;28;20430;-70
2022/04/19 05:18:24;;;;;;;2.45;2.03;;;;;;;5.06;68.85;100710.03;4966224;28;20121;-70
2022/04/19 05:20:49;;;;;;;2.15;2.05;;;;;;;5.09;68.40;100708.06;4952896;28;20715;-70
2022/04/19 05:23:14;;;;;;;2.65;2.05;;;;;;;5.15;68.89;100702.38;4951036;28;20046;-70
2022/04/19 05:25:40;;;;;;;1.95;1.90;;;;;;;5.22;68.64;100699.34;4945821;28;20427;-70
2022/04/19 05:28:05;;;;;;;2.03;1.90;;;;;;;5.31;68.32;100703.97;4953192;28;20003;-70
2022/04/19 05:30:31;;;;;;;2.13;1.98;;;;;;;5.35;67.90;100707.25;4943784;28;20049;-70
2022/04/19 05:32:56;;;;;;;1.80;1.80;;;;;;;5.41;67.66;100701.56;4940847;28;20030;-70
2022/04/19 05:35:22;;;;;;;2.25;2.05;;;;;;;5.51;67.91;100713.13;4952489;28;20429;-70
2022/04/19 05:37:47;;;;;;;1.90;1.85;;;;;;;5.73;67.12;100715.13;4955624;28;20390;-70
2022/04/19 05:40:14;;;;;;;2.20;2.10;;;;;;;5.87;66.79;100718.59;4935299;28;20027;-71
2022/04/19 05:42:39;;;;;;;2.45;2.20;;;;;;;5.99;67.28;100715.97;4930192;28;21053;-71
2022/04/19 05:45:05;;;;;;;4.60;2.20;;;;;;;6.22;66.40;100721.38;4956426;28;20018;-71
2022/04/19 05:47:31;;;;;;;2.40;2.28;;;;;;;6.20;66.90;100720.63;4974966;28;20026;-72
2022/04/19 05:49:56;;;;;;;3.53;2.45;;;;;;;6.21;67.00;100726.75;4972862;28;20030;-72
2022/04/19 05:52:22;;;;;;;4.60;2.47;;;;;;;6.53;66.11;100722.63;4954924;28;20018;-71
2022/04/19 05:54:47;;;;;;;2.60;2.40;;;;;;;6.59;66.12;100720.53;4968305;28;20031;-71
2022/04/19 05:57:13;;;;;;;3.55;2.50;;;;;;;6.60;65.61;100723.03;4957570;28;20038;-71
2022/04/19 05:59:38;;;;;;;3.05;2.70;;;;;;;6.68;66.41;100712.81;4956875;28;20026;-71
2022/04/19 06:04:54;;;;;;;3.90;3.08;;;;;;;6.65;66.58;100709.53;4975382;28;20203;-71
2022/04/19 06:07:26;;;;;;;2.80;2.60;;;;;;;6.83;67.01;100713.44;4938422;28;20948;-71
2022/04/19 06:09:51;;;;;;;4.35;3.10;;;;;;;7.10;65.95;100714.97;4955340;28;20015;-71
2022/04/19 06:12:16;;;;;;;5.25;3.15;;;;;;;7.21;64.92;100717.63;4943939;28;20018;-72
2022/04/19 06:14:42;;;;;;;10.30;3.80;;;;;;;7.32;63.77;100713.34;4958097;28;20030;-71
2022/04/19 06:17:07;;;;;;;12.00;4.07;;;;;;;7.60;63.25;100711.25;4968214;28;20423;-71
2022/04/19 06:19:32;;;;;;;9.68;3.90;;;;;;;7.73;63.37;100709.34;4958954;28;20145;-71
2022/04/19 06:21:58;;;;;;;9.73;3.42;;;;;;;7.90;62.93;100718.59;4936772;28;20350;-71
2022/04/19 06:24:24;;;;;;;7.47;3.05;;;;;;;8.02;62.48;100719.41;4973797;28;20029;-71
2022/04/19 06:26:49;;;;;;;6.10;3.60;;;;;;;8.15;62.11;100709.56;4925587;28;20112;-71
2022/04/19 06:29:15;;;;;;;3.92;3.30;;;;;;;8.33;61.25;100709.06;4964055;28;20034;-70
2022/04/19 06:31:40;;;;;;;4.00;3.15;;;;;;;8.40;60.99;100704.97;4958128;28;20049;-72
2022/04/19 06:34:08;;;;;;;4.05;3.05;;;;;;;8.48;60.41;100705.22;4943139;28;20283;-71
2022/04/19 06:36:34;;;;;;;4.05;3.33;;;;;;;8.56;60.05;100713.34;4957948;28;20007;-71
2022/04/19 06:38:59;;;;;;;4.82;3.05;;;;;;;8.71;58.83;100703.34;4978153;28;20093;-72
2022/04/19 06:41:25;;;;;;;6.15;2.88;;;;;;;8.83;57.38;100706.78;4963313;28;20057;-71
2022/04/19 06:43:50;;;;;;;5.03;2.90;;;;;;;8.99;57.57;100714.25;4972167;28;20332;-71
2022/04/19 06:46:17;;;;;;;5.57;3.30;;;;;;;9.06;57.44;100717.22;4970992;28;20968;-72
2022/04/19 06:48:42;;;;;;;4.70;3.63;;;;;;;9.26;57.37;100712.91;4963667;28;20022;-72
2022/04/19 06:51:09;;;;;;;6.22;3.83;;;;;;;9.49;56.22;100718.91;4966587;28;20014;-72
2022/04/19 06:53:35;;;;;;;3.63;3.33;;;;;;;9.53;56.13;100719.47;4963573;28;20107;-72
2022/04/19 06:56:00;;;;;;;3.17;2.97;;;;;;;9.59;55.70;100711.88;4949299;28;20010;-71
2022/04/19 06:58:26;;;;;;;9.95;3.60;;;;;;;9.71;55.56;100715.25;4956281;28;20027;-71
2022/04/19 07:00:51;;;;;;;5.28;3.38;;;;;;;9.82;55.99;100714.34;4984253;28;20041;-71
2022/04/19 07:03:16;;;;;;;4.43;3.60;;;;;;;10.01;56.16;100713.59;4971699;28;20006;-71
2022/04/19 07:05:42;;;;;;;7.60;4.03;;;;;;;10.13;56.03;100711.66;4993907;28;20018;-71
2022/04/19 07:08:07;;;;;;;4.47;3.80;;;;;;;10.16;54.46;100702.63;4992086;28;20118;-71
2022/04/19 07:10:36;;;;;;;3.92;3.30;;;;;;;10.28;54.08;100698.91;4979700;28;20126;-71
2022/04/19 07:13:01;;;;;;;5.40;4.10;;;;;;;10.38;54.68;100701.59;4961984;28;20021;-71
2022/04/19 07:15:27;;;;;;;6.80;3.92;;;;;;;10.46;53.39;100696.44;4959718;28;20466;-70
2022/04/19 07:17:52;;;;;;;7.22;3.95;;;;;;;10.58;52.43;100699.81;4951185;28;20823;-71
2022/04/19 07:28:33;;;;;;;5.10;3.75;;;;;;;11.09;50.87;100708.44;4965092;28;20949;-70
2022/04/19 07:30:59;;;;;;;4.70;4.30;;;;;;;11.14;51.12;100703.59;4942375;28;20109;-71
2022/04/19 07:33:24;;;;;;;8.35;4.20;;;;;;;11.28;50.89;100699.63;4966243;28;21015;-70
2022/04/19 07:35:51;;;;;;;7.78;4.10;;;;;;;11.36;49.52;100694.47;4971133;28;20431;-71
2022/04/19 07:38:16;;;;;;;5.55;4.22;;;;;;;11.48;48.67;100703.91;4973777;28;20021;-71
2022/04/19 07:40:41;;;;;;;4.28;3.95;;;;;;;11.55;48.34;100696.22;4972477;28;20403;-71
2022/04/19 07:43:07;;;;;;;7.50;4.22;;;;;;;11.69;47.48;100700.25;4973316;28;20311;-70
2022/04/19 07:45:32;;;;;;;7.05;4.40;;;;;;;11.76;47.59;100700.47;4968751;28;20034;-71
2022/04/19 07:47:57;;;;;;;4.60;4.20;;;;;;;11.89;47.17;100700.97;4956515;28;20025;-72
2022/04/19 07:50:23;;;;;;;6.70;5.32;;;;;;;12.06;46.89;100693.28;4975581;28;20432;-72
2022/04/19 07:52:48;;;;;;;4.70;4.30;;;;;;;12.10;46.05;100692.81;4974389;28;20107;-72
2022/04/19 07:55:13;;;;;;;5.68;4.50;;;;;;;12.25;45.70;100700.28;4968901;28;20041;-72
2022/04/19 07:57:39;;;;;;;4.97;4.57;;;;;;;12.39;45.84;100698.94;4940016;28;20026;-72
2022/04/19 08:00:06;;;;;;;5.55;5.05;;;;;;;12.56;45.52;100700.75;4973110;28;20774;-72
2022/04/19 08:02:31;;;;;;;5.13;4.40;;;;;;;12.71;45.09;100704.56;4970303;28;20427;-72
2022/04/19 08:04:57;;;;;;;5.07;4.68;;;;;;;12.85;44.32;100703.19;4976187;28;20035;-72
2022/04/19 08:07:22;;;;;;;4.95;4.55;;;;;;;12.87;43.72;100697.72;4976747;28;20902;-72
2022/04/19 08:09:48;;;;;;;5.68;4.82;;;;;;;13.09;43.77;100703.56;4975131;28;20966;-72
2022/04/19 08:12:13;;;;;;;6.55;4.70;;;;;;;13.20;45.18;100695.34;4954049;28;20420;-72
2022/04/19 08:14:41;;;;;;;5.00;4.57;;;;;;;13.37;43.93;100702.47;4919966;28;20007;-72
2022/04/19 08:17:07;;;;;;;5.40;4.90;;;;;;;13.47;41.63;100696.22;4957270;28;20030;-72
2022/04/19 08:19:32;;;;;;;8.88;5.00;;;;;;;13.73;41.38;100691.72;4935928;28;20726;-71
2022/04/19 08:21:58;;;;;;;5.43;4.93;;;;;;;13.83;41.63;100698.72;4934705;28;20033;-72
2022/04/19 08:24:23;;;;;;;7.78;5.50;;;;;;;13.84;41.53;100697.72;4963483;28;20011;-71
2022/04/19 08:26:48;;;;;;;7.18;5.53;;;;;;;13.95;40.72;100683.31;4966274;28;20038;-72
2022/04/19 08:29:14;;;;;;;10.20;5.55;;;;;;;14.12;40.79;100684.22;4957526;28;20033;-72
2022/04/19 08:31:39;;;;;;;11.80;5.68;;;;;;;14.27;40.84;100685.25;4961410;28;20209;-72
2022/04/19 08:34:05;;;;;;;6.40;4.95;;;;;;;14.47;40.62;100679.59;4950908;28;20088;-71
2022/04/19 08:36:30;;;;;;;5.88;5.25;;;;;;;14.69;39.15;100680.84;4945139;28;20088;-72
2022/04/19 08:38:56;;;;;;;5.88;5.25;;;;;;;14.71;39.45;100666.38;4936410;28;20021;-71
2022/04/19 08:41:21;;;;;;;8.90;5.18;;;;;;;14.77;39.51;100668.34;4952067;28;20280;-72
2022/04/19 08:43:46;;;;;;;7.28;5.60;;;;;;;14.95;38.77;100675.38;4954370;28;20014;-71
2022/04/19 08:46:12;;;;;;;5.90;5.40;;;;;;;15.15;38.63;100677.69;4953815;28;20018;-71
2022/04/19 08:48:40;;;;;;;8.75;5.22;;;;;;;15.25;38.52;100673.00;4956597;28;20026;-71
2022/04/19 08:51:05;;;;;;;6.20;5.00;;;;;;;15.45;39.71;100671.63;4970297;28;20025;-72
2022/04/19 08:59:03;;;;;;;10.68;5.80;;;;;;;16.27;36.61;100666.97;4974629;28;20206;-70
2022/04/19 09:01:29;;;;;;;6.15;5.53;;;;;;;16.59;39.73;100657.91;4938474;28;20073;-71
2022/04/19 09:03:54;;;;;;;5.63;5.10;;;;;;;16.86;36.82;100662.88;4941006;28;20057;-71
2022/04/19 09:06:20;;;;;;;5.95;5.00;;;;;;;16.89;34.46;100662.53;4964019;28;20039;-71
2022/04/19 09:09:08;;;;;;;6.20;5.10;;;;;;;17.04;33.24;100662.59;4955692;28;20680;-71
2022/04/19 09:11:34;;;;;;;7.03;5.32;;;;;;;17.23;33.16;100661.22;4976806;28;20010;-71
2022/04/19 09:14:06;;;;;;;5.63;5.13;;;;;;;17.49;32.88;100661.63;4980095;28;20414;-75
2022/04/19 09:16:32;;;;;;;5.00;4.60;;;;;;;17.64;33.57;100656.28;4963898;28;20017;-70
2022/04/19 09:18:57;;;;;;;5.32;4.82;;;;;;;17.78;32.67;100662.63;4979207;28;20002;-72
2022/04/19 09:21:34;;;;;;;6.25;5.35;;;;;;;18.16;30.10;100658.97;4978091;28;20018;-71
2022/04/19 09:24:00;;;;;;;5.00;4.38;;;;;;;18.41;30.38;100656.75;4938699;28;20766;-71
2022/04/19 09:26:42;;;;;;;5.10;4.60;;;;;;;18.76;32.02;100648.03;4965295;28;20030;-72
2022/04/19 09:29:21;;;;;;;4.45;4.05;;;;;;;19.10;29.54;100649.97;4982376;28;20121;-72
2022/04/19 09:31:47;;;;;;;4.32;4.03;;;;;;;19.28;30.10;100644.09;4973349;28;20034;-72
2022/04/19 09:34:23;;;;;;;5.45;4.95;;;;;;;19.45;31.72;100651.84;4955236;28;20030;-72
2022/04/19 09:36:53;;;;;;;4.80;4.50;;;;;;;19.53;31.37;100649.84;4945169;28;20005;-72
2022/04/19 09:39:25;;;;;;;5.13;4.63;;;;;;;19.92;29.92;100641.38;4960926;28;20014;-72
2022/04/19 09:41:59;;;;;;;5.05;4.50;;;;;;;20.15;29.40;100636.47;4949036;28;20008;-72
2022/04/19 09:44:24;;;;;;;;;;;;;;;20.56;28.53;100638.19;4983199;28;20037;-72
2022/04/19 09:47:06;;;;;;;4.60;4.30;;;;;;;21.02;29.40;100641.13;4986902;28;19913;-71
2022/04/19 09:49:42;;;;;;;3.50;3.30;;;;;;;21.02;27.52;100641.94;4952724;28;20121;-72
2022/04/19 09:52:08;;;;;;;4.90;4.45;;;;;;;20.91;27.97;100638.03;4964526;28;20013;-72
2022/04/19 09:54:33;;;;;;;3.85;3.65;;;;;;;20.84;28.30;100626.47;4963206;28;20015;-72
2022/04/19 09:57:08;;;;;;;4.38;4.07;;;;;;;21.27;27.31;100625.97;4973993;28;20204;-71
2022/04/19 09:59:34;;;;;;;3.17;3.08;;;;;;;21.24;28.64;100629.09;4986392;28;20018;-72
2022/04/19 10:10:11;;;;;;;3.92;3.60;;;;;;;22.54;25.76;100627.28;4998792;28;20408;-72
2022/04/19 10:12:39;;;;;;;4.10;3.75;;;;;;;22.90;25.86;100612.25;4965896;28;20372;-72
2022/04/19 10:15:06;;;;;;;4.10;3.58;;;;;;;23.17;25.48;100620.13;4978451;28;20000;-73
2022/04/19 10:17:32;;;;;;;3.67;3.47;;;;;;;23.48;23.54;100615.63;5025581;28;20319;-73
2022/04/19 10:20:00;;;;;;;3.83;3.53;;;;;;;23.89;22.55;100614.09;4982866;28;20275;-73
2022/04/19 10:22:27;;;;;;;3.70;3.47;;;;;;;24.22;23.60;100615.50;4979014;28;20018;-73
2022/04/19 10:24:52;;;;;;;5.40;3.80;;;;;;;24.82;22.92;100609.16;4985133;28;20361;-73
2022/04/19 10:27:18;;;;;;;3.55;3.35;;;;;;;24.52;23.42;100603.81;4960298;28;20041;-72
2022/04/19 10:29:43;;;;;;;3.70;3.50;;;;;;;24.35;22.74;100607.22;4978583;28;20006;-73
2022/04/19 10:32:11;;;;;;;3.78;3.58;;;;;;;24.85;23.01;100605.19;4989130;28;20201;-73
2022/04/19 10:34:37;;;;;;;3.72;3.53;;;;;;;24.55;22.57;100608.78;4971284;28;20515;-71
2022/04/19 10:37:13;;;;;;;4.00;3.75;;;;;;;25.39;22.98;100606.91;4958536;28;20054;-73
2022/04/19 10:39:45;;;;;;;3.67;3.47;;;;;;;24.94;22.62;100606.44;5000910;28;20290;-73
2022/04/19 10:42:32;;;;;;;3.20;3.00;;;;;;;24.88;23.90;100596.56;4973590;28;20034;-73
2022/04/19 10:44:58;;;;;;;3.60;3.30;;;;;;;24.71;23.19;100603.75;4969259;28;20054;-72
2022/04/19 10:47:24;;;;;;;4.13;3.83;;;;;;;25.13;22.49;100598.19;4992346;28;20371;-72
2022/04/19 10:50:03;;;;;;;3.80;3.20;;;;;;;25.76;22.51;100595.72;4979084;28;20307;-72
2022/04/19 10:52:38;;;;;;;3.75;3.55;;;;;;;25.81;22.44;100593.94;4972369;28;20077;-73
2022/04/19 10:55:06;;;;;;;4.22;3.97;;;;;;;25.21;22.25;100595.13;4987738;28;20160;-72
2022/04/19 11:00:51;;;;;;;3.05;2.85;;;;;;;26.11;22.41;100597.50;4965544;28;20286;-72
2022/04/19 11:03:26;;;;;;;3.15;3.00;;;;;;;25.90;21.12;100583.50;4983688;28;20018;-72
2022/04/19 11:05:55;;;;;;;3.10;2.80;;;;;;;26.44;22.81;100576.88;4984355;28;20179;-73
2022/04/19 11:08:24;;;;;;;3.40;2.88;;;;;;;25.89;21.62;100585.41;4952110;28;20787;-72
2022/04/19 11:10:50;;;;;;;3.28;3.10;;;;;;;25.89;22.16;100585.41;4969725;28;20026;-73
2022/04/19 11:13:15;;;;;;;3.38;3.17;;;;;;;25.14;20.77;100575.47;4960300;28;20687;-72
2022/04/19 11:15:42;;;;;;;3.42;2.75;;;;;;;25.25;21.52;100580.06;4961980;28;20029;-71
2022/04/19 11:18:27;;;;;;;2.70;2.60;;;;;;;26.58;20.93;100575.47;4984804;28;20014;-71
2022/04/19 11:20:53;;;;;;;2.72;2.63;;;;;;;27.16;20.46;100572.50;4988125;28;20835;-72
2022/04/19 11:23:20;;;;;;;2.92;2.50;;;;;;;26.64;18.76;100579.06;4987087;28;20026;-72
2022/04/19 11:25:46;;;;;;;2.58;2.38;;;;;;;27.45;19.85;100575.09;4990320;28;20296;-72
2022/04/19 11:28:11;;;;;;;2.95;2.63;;;;;;;27.95;20.04;100576.72;4976111;28;20899;-73
2022/04/19 11:30:56;;;;;;;2.92;2.78;;;;;;;28.70;17.68;100567.84;4994479;28;20091;-72
2022/04/19 11:33:31;;;;;;;2.42;2.33;;;;;;;28.35;17.20;100570.00;4990494;28;20137;-72
2022/04/19 11:36:10;;;;;;;2.60;2.50;;;;;;;28.38;18.72;100569.47;4999656;28;20019;-72
2022/04/19 11:38:46;;;;;;;2.20;2.10;;;;;;;28.03;18.70;100568.09;4994505;28;20050;-72
2022/04/19 11:46:44;;;;;;;3.20;2.70;;;;;;;27.42;19.26;100569.06;4999255;28;20936;-72
2022/04/19 11:46:53;;;;;;;2.58;2.33;;;;;;;27.50;19.36;100570.53;4999848;28;20542;-72
2022/04/19 11:49:18;;;;;;;2.60;2.50;;;;;;;27.05;20.53;100577.00;5003884;28;20026;-72
2022/04/19 11:51:49;;;;;;;2.60;2.50;;;;;;;27.16;19.51;100576.06;4997289;28;20440;-72
2022/04/19 11:54:31;;;;;;;2.38;2.20;;;;;;;27.59;20.14;100579.03;4980875;28;20882;-73
2022/04/19 11:56:57;;;;;;;2.10;2.00;;;;;;;28.37;20.49;100578.75;4974502;28;20014;-72
2022/04/19 11:59:32;;;;;;;3.38;2.38;;;;;;;28.05;17.66;100571.41;4942997;28;20266;-72
2022/04/19 12:01:58;;;;;;;2.28;2.17;;;;;;;29.04;18.67;100571.03;4967792;28;20092;-71
2022/04/19 12:04:25;;;;;;;1.83;1.73;;;;;;;29.19;17.80;100561.28;4956425;28;20027;-72
2022/04/19 12:07:03;;;;;;;1.77;1.73;;;;;;;29.40;18.12;100571.22;4938885;28;20134;-72
2022/04/19 12:09:29;;;;;;;2.03;1.88;;;;;;;29.62;17.62;100564.72;4939096;28;20010;-73
2022/04/19 12:11:55;;;;;;;1.77;1.77;;;;;;;30.09;17.10;100561.03;4927291;28;20067;-72